Stations météo

réclame
Mon MeteoGroup
Faaroesund-ar, Suède (2587): Température de l'air & dewpoint: 09.11.2018 22:00:00 - 15.11.2018 22:00:00 (CET)Faaroesund-ar, Suède (2587): Vitesse du vent & gusts: 09.11.2018 22:00:00 - 15.11.2018 22:00:00 (CET)Faaroesund-ar, Suède (2587): Direction du vent: 09.11.2018 22:00:00 - 15.11.2018 22:00:00 (CET)Faaroesund-ar, Suède (2587): visibility: 09.11.2018 22:00:00 - 15.11.2018 22:00:00 (CET)Faaroesund-ar, Suède (2587): Quantités de précipitations: 09.11.2018 22:00:00 - 15.11.2018 22:00:00 (CET)
Date & Time tt [°C] td [°C] ff [km/h] ff [knt] fx [km/h] fx [knt] dd vv [km] rr [mm]
15.11.2018 22:00:00 - - - - - - - - -
15.11.2018 21:00:00 8,3 7,2 18 10 27 14 SSW 10 0,0
15.11.2018 20:00:00 8,2 7,1 13 7 28 15 SW 10 0,0
15.11.2018 19:00:00 8,1 7,0 16 9 28 15 SSW 12 0,0
15.11.2018 18:00:00 7,9 6,7 16 9 28 15 SSW 16 0,0
15.11.2018 17:00:00 7,7 6,5 16 8 29 16 SSW 15 0,0
15.11.2018 16:00:00 7,8 6,4 18 10 31 17 SSW 14 0,0
15.11.2018 15:00:00 7,7 6,5 16 9 34 19 SSW 14 0,0
15.11.2018 14:00:00 7,1 6,0 19 10 34 19 SW 19 0,0
15.11.2018 13:00:00 8,9 6,7 17 9 28 15 SW 40 0,0
15.11.2018 12:00:00 8,7 7,6 8 5 18 10 SSW 24 0,0
15.11.2018 11:00:00 7,5 7,4 8 5 19 10 SSW 11 0,0
15.11.2018 10:00:00 6,0 5,9 13 7 19 10 SSW 6 0,0
15.11.2018 09:00:00 4,1 4,0 14 7 19 10 SSW 0,8 0,0
15.11.2018 08:00:00 3,4 3,3 12 6 18 10 SSW 0,8 0,0
15.11.2018 07:00:00 4,2 4,1 14 7 18 10 S 22 0,0
15.11.2018 06:00:00 4,4 4,3 13 7 18 10 SSW 1,2 0,0
15.11.2018 05:00:00 5,3 5,0 10 5 18 10 SSW 13 0,0
15.11.2018 04:00:00 5,7 5,3 9 5 18 10 S 16 0,0
15.11.2018 03:00:00 5,9 5,5 11 6 14 8 SSW 28 0,0
15.11.2018 02:00:00 6,6 5,7 9 5 14 7 SSW 48 0,0
15.11.2018 01:00:00 7,1 5,7 9 5 16 9 SSW 50 0,0
15.11.2018 00:00:00 7,2 6,0 9 5 16 9 SSW 50 0,0
14.11.2018 23:00:00 6,8 5,9 8 4 13 7 S 41 0,0
14.11.2018 22:00:00 7,0 5,9 7 4 12 7 SSW 46 0,0
14.11.2018 21:00:00 7,1 6,0 8 4 12 6 S 50 0,0
14.11.2018 20:00:00 7,3 5,9 7 4 16 9 SSW 50 0,0
14.11.2018 19:00:00 7,7 5,7 8 4 26 14 SW 50 0,0
14.11.2018 18:00:00 7,8 5,2 9 5 26 14 W 50 0,0
14.11.2018 17:00:00 7,8 5,4 10 5 27 14 W 50 0,0
14.11.2018 16:00:00 7,8 6,1 13 7 27 14 W 50 0,0
14.11.2018 15:00:00 7,9 7,1 19 10 27 14 WNW 49 0,0
14.11.2018 14:00:00 8,1 7,3 16 9 28 15 W 36 0,0
14.11.2018 13:00:00 8,4 7,3 18 10 28 15 W 50 0,0
14.11.2018 12:00:00 8,5 7,4 20 11 26 14 W 47 0,0
14.11.2018 11:00:00 8,6 7,4 18 10 26 14 W 46 0,0
14.11.2018 10:00:00 8,5 7,6 13 7 27 15 W 27 0,0
14.11.2018 09:00:00 8,2 7,3 15 8 27 15 W 25 0,0
14.11.2018 08:00:00 7,9 7,1 18 10 24 13 WSW 21 0,0
14.11.2018 07:00:00 7,7 7,3 16 9 23 12 W 20 0,0
14.11.2018 06:00:00 7,1 7,0 10 5 15 8 SW 3,4 0,0
14.11.2018 05:00:00 7,1 7,0 11 6 14 8 SSW 3,7 0,0
14.11.2018 04:00:00 7,0 6,9 9 5 16 8 SW 3,7 0,0
14.11.2018 03:00:00 7,4 7,3 10 5 16 8 SSW 6 0,0
14.11.2018 02:00:00 6,9 6,8 11 6 14 8 SSW 7 0,3
14.11.2018 01:00:00 6,4 6,3 10 5 14 8 S 13 0,0
14.11.2018 00:00:00 5,8 5,7 10 6 13 7 S 6 0,0
13.11.2018 23:00:00 5,7 5,6 7 4 18 10 S 1,0 0,0
13.11.2018 22:00:00 6,5 6,4 3 1 18 10 SE 6 0,0
13.11.2018 21:00:00 6,7 6,6 10 5 21 11 SSW 8 0,0
13.11.2018 20:00:00 6,4 6,2 10 5 21 11 SW 2,7 0,0
13.11.2018 19:00:00 7,2 6,6 11 6 17 9 SW 19 0,0
13.11.2018 18:00:00 7,4 6,8 11 6 17 9 SSW 35 0,0
13.11.2018 17:00:00 7,2 6,9 8 4 15 8 SSW 15 0,0
13.11.2018 16:00:00 7,4 7,0 9 5 15 8 SSW 23 0,0
13.11.2018 15:00:00 7,8 7,4 10 6 19 10 SSW 33 0,0
13.11.2018 14:00:00 8,1 7,8 13 7 19 10 SSW 16 0,0
13.11.2018 13:00:00 8,0 7,7 9 5 18 10 SSW 22 0,0
13.11.2018 12:00:00 7,8 7,7 13 7 18 10 SW 38 0,0
13.11.2018 11:00:00 7,6 7,5 12 6 21 12 WSW 16 0,0
13.11.2018 10:00:00 7,5 7,4 14 8 21 12 W 1,2 0,0
13.11.2018 09:00:00 7,9 7,8 13 7 31 17 W 23 0,0
13.11.2018 08:00:00 7,9 7,8 15 8 31 17 WNW 14 0,0
13.11.2018 07:00:00 7,9 7,8 11 6 23 13 WNW 9 0,0
13.11.2018 06:00:00 8,1 8,0 17 9 24 13 NW 1,4 0,1
13.11.2018 05:00:00 8,7 8,6 16 9 24 13 W 2,0 0,2
13.11.2018 04:00:00 9,1 9,0 12 6 15 8 W 2,1 0,7
13.11.2018 03:00:00 9,3 9,0 6 3 19 11 SSW 1,5 0,5
13.11.2018 02:00:00 9,4 9,1 8 5 24 13 SSW 2,4 1,2
13.11.2018 01:00:00 9,2 8,9 12 7 27 14 S 4,2 0,6
13.11.2018 00:00:00 9,2 8,9 11 6 27 14 S 3,8 2,1
12.11.2018 23:00:00 9,0 8,7 16 9 26 14 SSE 4,2 1,6
12.11.2018 22:00:00 9,0 8,7 17 9 29 16 SSE 2,9 0,8
12.11.2018 21:00:00 9,0 8,7 15 8 29 16 S 3,5 0,2
12.11.2018 20:00:00 8,9 8,8 13 7 25 13 S 1,3 0,1
12.11.2018 19:00:00 8,4 8,3 11 6 17 9 SSE 5 0,0
12.11.2018 18:00:00 8,1 7,8 9 5 22 12 S 5 0,0
12.11.2018 17:00:00 7,8 7,5 10 5 24 13 SSW 6 0,0
12.11.2018 16:00:00 8,1 7,5 14 8 30 16 SSW 15 0,0
12.11.2018 15:00:00 8,7 8,1 16 9 30 16 SW 11 0,0
12.11.2018 14:00:00 9,4 8,8 16 8 29 15 SSW 7 0,0
12.11.2018 13:00:00 9,5 9,4 15 8 27 15 S 2,5 0,0
12.11.2018 12:00:00 9,1 8,8 15 8 35 19 S 1,2 0,1
12.11.2018 11:00:00 9,2 8,7 17 9 38 21 S 2,9 0,2
12.11.2018 10:00:00 9,0 8,4 21 11 38 21 S 3,2 0,1
12.11.2018 09:00:00 9,0 8,4 19 11 35 19 S 3,3 0,1
12.11.2018 08:00:00 8,9 8,4 20 11 37 20 S 2,5 0,1
12.11.2018 07:00:00 8,9 8,4 20 11 37 20 S 2,1 0,0
12.11.2018 06:00:00 8,8 8,3 20 11 37 20 S 1,9 0,0
12.11.2018 05:00:00 8,7 8,4 22 12 39 21 SSE 2,3 0,0
12.11.2018 04:00:00 8,5 8,2 22 12 40 21 SSE 1,7 0,1
12.11.2018 03:00:00 8,4 8,1 23 13 45 24 SSE 2,8 0,1
12.11.2018 02:00:00 8,0 7,6 23 12 45 24 SSE 4,1 0,5
12.11.2018 01:00:00 7,8 7,4 26 14 52 28 SSE 3,1 0,3
12.11.2018 00:00:00 7,7 7,3 27 15 52 28 SSE 2,6 0,0
11.11.2018 23:00:00 7,5 7,1 29 16 51 28 SSE 1,9 0,0
11.11.2018 22:00:00 7,3 6,9 28 15 50 27 SSE 2,4 0,1
11.11.2018 21:00:00 7,1 6,7 26 14 48 26 SSE 2,0 0,5
11.11.2018 20:00:00 7,0 6,4 26 14 48 26 SE 3,4 0,7
11.11.2018 19:00:00 7,0 6,6 27 14 47 26 SE 2,8 0,0
11.11.2018 18:00:00 6,7 6,1 24 13 47 26 SE 2,7 0,0
11.11.2018 17:00:00 6,7 6,1 28 15 46 25 SE 3,9 0,0
11.11.2018 16:00:00 6,9 6,3 24 13 49 26 SSE 4,2 0,0
11.11.2018 15:00:00 6,8 6,2 29 15 49 26 SSE 4,8 0,0
11.11.2018 14:00:00 7,2 6,9 26 14 41 22 SSE 2,3 0,0
11.11.2018 13:00:00 7,2 6,9 25 13 41 22 SE 2,2 0,0
11.11.2018 12:00:00 7,1 6,8 22 12 42 23 SSE 2,0 0,0
11.11.2018 11:00:00 7,4 7,0 28 15 42 23 SSE 2,9 0,0
11.11.2018 10:00:00 8,0 7,7 27 14 42 23 SSE 1,9 0,0
11.11.2018 09:00:00 8,2 8,1 24 13 41 22 SE 2,1 0,0
11.11.2018 08:00:00 8,3 8,0 23 12 40 22 SE 1,5 0,0
11.11.2018 07:00:00 8,5 8,4 21 11 32 17 SE 1,6 0,0
11.11.2018 06:00:00 8,6 8,5 16 9 29 16 SE 1,7 0,0
11.11.2018 05:00:00 8,6 8,5 17 9 27 15 SE 3,6 0,0
11.11.2018 04:00:00 8,5 8,4 13 7 24 13 SE 1,1 0,0
11.11.2018 03:00:00 8,5 8,2 11 6 24 13 ESE 2,6 0,0
11.11.2018 02:00:00 8,5 8,2 14 7 23 12 SE 2,6 0,0
11.11.2018 01:00:00 8,7 8,3 14 7 21 12 SE 3,5 0,0
11.11.2018 00:00:00 8,7 8,3 13 7 24 13 SE 3,0 0,0
10.11.2018 23:00:00 8,6 8,3 13 7 27 15 SE 3,6 0,0
10.11.2018 22:00:00 8,5 8,2 16 9 27 15 ESE 3,1 0,0
10.11.2018 21:00:00 8,5 8,1 15 8 27 14 SE 2,9 0,0
10.11.2018 20:00:00 8,4 8,0 16 9 24 13 ESE 4,2 0,0
10.11.2018 19:00:00 8,4 8,0 13 7 24 13 SE 6 0,0
10.11.2018 18:00:00 8,3 7,9 14 8 23 13 ESE 7 0,0
10.11.2018 17:00:00 7,8 7,4 14 8 24 13 ESE 7 0,0
10.11.2018 16:00:00 7,6 7,2 14 8 24 13 ESE 6 0,0
10.11.2018 15:00:00 7,4 7,0 11 6 19 10 ESE 7 0,0
10.11.2018 14:00:00 7,2 6,8 12 6 22 12 E 8 0,0
10.11.2018 13:00:00 7,0 6,6 11 6 24 13 ESE 7 0,3
10.11.2018 12:00:00 6,9 6,6 14 8 24 13 ESE 7 0,0
10.11.2018 11:00:00 7,1 6,8 11 6 23 12 SE 3,6 0,0
10.11.2018 10:00:00 7,2 6,9 11 6 21 12 SE 2,8 0,0
10.11.2018 09:00:00 7,1 6,8 10 6 21 12 SE 3,7 0,0
10.11.2018 08:00:00 7,2 6,9 10 6 18 10 SE 3,0 0,0
10.11.2018 07:00:00 7,4 7,1 11 6 16 9 SE 3,3 0,0
10.11.2018 06:00:00 7,5 7,4 9 5 12 7 SE 4,0 0,0
10.11.2018 05:00:00 7,6 7,5 6 4 11 6 SE 6 0,0
10.11.2018 04:00:00 7,6 7,5 6 3 11 6 SSE 4,7 0,1
10.11.2018 03:00:00 7,4 7,3 7 4 10 5 SE 7 0,1
10.11.2018 02:00:00 7,4 7,3 4 2 11 6 SE 3,5 0,0
10.11.2018 01:00:00 - - - - 11 6 - - -
10.11.2018 00:00:00 7,6 7,5 3 2 7 4 SSE 3,9 0,0
09.11.2018 23:00:00 7,6 7,5 0 0 8 5 N 4,1 0,0
09.11.2018 22:00:00 7,6 7,5 6 3 10 6 ESE 2,3 0,0

tt = Température de l'air
td = dewpoint
ff = Vitesse du vent
fx = gusts
dd = Direction du vent
vv = visibility
rr = Quantités de précipitations

stations d'obs. à proximité